Time;durP1;ratioP1;P1;durP2;ratioP2;P2;SDS_P1;SDS_P2;PMS_P1;PMS_P2;Temp;Humidity;BMP_temperature;BMP_pressure;BME280_temperature;BME280_humidity;BME280_pressure;Samples;Min_cycle;Max_cycle;Signal;HPM_P1;HPM_P2
2022/03/30 00:01:51;;;;;;;5.47;1.40;;;4.80;99.90;;;;;;5048375;28;20211;-48
2022/03/30 00:04:19;;;;;;;5.70;1.77;;;4.80;99.90;;;;;;5052531;28;20225;-49
2022/03/30 00:06:45;;;;;;;6.03;1.60;;;4.80;99.90;;;;;;5062347;28;20679;-47
2022/03/30 00:09:12;;;;;;;6.57;1.83;;;4.80;99.90;;;;;;5058377;28;20536;-49
2022/03/30 00:11:39;;;;;;;4.63;1.47;;;4.90;99.90;;;;;;5061921;28;20186;-45
2022/03/30 00:14:06;;;;;;;2.93;1.33;;;4.80;99.90;;;;;;5064330;28;20196;-46
2022/03/30 00:16:35;;;;;;;31.17;2.30;;;4.90;99.90;;;;;;5059637;28;20294;-46
2022/03/30 00:19:02;;;;;;;5.70;1.77;;;4.90;99.90;;;;;;5050642;28;20719;-45
2022/03/30 00:21:29;;;;;;;7.40;1.40;;;4.80;99.90;;;;;;5061681;28;20222;-45
2022/03/30 00:23:56;;;;;;;4.13;1.33;;;4.80;99.90;;;;;;5063577;28;20668;-48
2022/03/30 00:26:23;;;;;;;5.00;2.03;;;4.80;99.90;;;;;;5055619;28;20249;-46
2022/03/30 00:28:50;;;;;;;3.30;1.50;;;4.80;99.90;;;;;;5064166;28;20202;-47
2022/03/30 00:31:18;;;;;;;6.57;1.40;;;4.80;99.90;;;;;;5062090;28;20269;-47
2022/03/30 00:33:48;;;;;;;8.00;1.57;;;4.80;99.90;;;;;;5048658;28;20213;-48
2022/03/30 00:36:15;;;;;;;6.57;1.80;;;4.80;99.90;;;;;;5061538;28;20696;-46
2022/03/30 00:38:42;;;;;;;8.80;1.87;;;4.70;99.90;;;;;;5061621;28;20191;-44
2022/03/30 00:41:08;;;;;;;6.17;1.67;;;4.70;99.90;;;;;;5058422;28;20578;-44
2022/03/30 00:43:36;;;;;;;6.13;1.43;;;4.60;99.90;;;;;;5060648;28;20879;-44
2022/03/30 00:46:03;;;;;;;2.53;1.67;;;4.60;99.90;;;;;;5062765;28;20226;-48
2022/03/30 00:48:30;;;;;;;6.07;1.70;;;4.60;99.90;;;;;;5059713;28;20789;-44
2022/03/30 00:50:58;;;;;;;7.23;1.70;;;4.60;99.90;;;;;;5050091;28;20207;-47
2022/03/30 00:53:25;;;;;;;8.90;1.63;;;4.60;99.90;;;;;;5059169;28;20285;-46
2022/03/30 00:55:53;;;;;;;3.33;1.80;;;4.70;99.90;;;;;;5055168;28;20717;-47
2022/03/30 00:58:21;;;;;;;5.00;1.63;;;4.70;99.90;;;;;;5060708;28;20213;-45
2022/03/30 01:00:48;;;;;;;6.10;1.80;;;4.70;99.90;;;;;;5062839;28;20529;-44
2022/03/30 01:03:16;;;;;;;4.27;2.10;;;4.70;99.90;;;;;;5061562;28;20258;-44
2022/03/30 01:05:43;;;;;;;3.67;1.60;;;4.70;99.90;;;;;;5044353;28;21157;-45
2022/03/30 01:08:11;;;;;;;7.60;1.77;;;4.70;99.90;;;;;;5058863;28;20218;-46
2022/03/30 01:10:38;;;;;;;3.90;1.80;;;4.60;99.90;;;;;;5055219;28;20289;-43
2022/03/30 01:13:07;;;;;;;4.97;1.50;;;4.60;99.90;;;;;;5063320;28;20556;-47
2022/03/30 01:15:34;;;;;;;4.73;1.50;;;4.60;99.90;;;;;;5059062;28;20784;-50
2022/03/30 01:18:02;;;;;;;6.20;1.93;;;4.60;99.90;;;;;;5062587;28;20234;-45
2022/03/30 01:20:30;;;;;;;6.87;1.83;;;4.60;99.90;;;;;;5059185;28;20824;-43
2022/03/30 01:22:58;;;;;;;3.87;1.53;;;4.60;99.90;;;;;;5048869;28;20210;-49
2022/03/30 01:25:26;;;;;;;6.17;1.83;;;4.60;99.90;;;;;;5059201;28;20218;-45
2022/03/30 01:27:53;;;;;;;5.43;1.87;;;4.60;99.90;;;;;;5057737;28;20604;-46
2022/03/30 01:33:08;;;;;;;4.23;1.47;;;4.60;99.90;;;;;;5056786;28;20198;-44
2022/03/30 01:35:36;;;;;;;6.57;1.60;;;4.60;99.90;;;;;;5059585;28;20271;-45
2022/03/30 01:38:05;;;;;;;5.43;1.67;;;4.60;99.90;;;;;;5048303;28;20202;-46
2022/03/30 01:40:32;;;;;;;10.47;2.17;;;4.60;99.90;;;;;;5058257;28;20297;-48
2022/03/30 01:42:59;;;;;;;5.27;1.73;;;4.50;99.90;;;;;;5057619;28;20214;-44
2022/03/30 01:45:27;;;;;;;3.67;1.30;;;4.50;99.90;;;;;;5058796;28;20265;-44
2022/03/30 01:47:57;;;;;;;6.60;1.80;;;4.50;99.90;;;;;;5062307;28;20993;-47
2022/03/30 01:50:25;;;;;;;3.80;1.83;;;4.50;99.90;;;;;;5059926;28;20191;-45
2022/03/30 01:52:52;;;;;;;4.30;1.33;;;4.50;99.90;;;;;;5050052;28;20202;-47
2022/03/30 01:55:20;;;;;;;7.80;1.37;;;4.50;99.90;;;;;;5059946;28;20222;-47
2022/03/30 01:57:48;;;;;;;3.23;1.63;;;4.60;99.90;;;;;;5056266;28;20202;-46
2022/03/30 02:00:17;;;;;;;5.90;1.60;;;4.60;99.90;;;;;;5060955;28;20203;-44
2022/03/30 02:02:44;;;;;;;4.80;1.50;;;4.50;99.90;;;;;;5061150;28;20213;-44
2022/03/30 02:05:11;;;;;;;3.23;1.33;;;4.50;99.90;;;;;;5062102;28;20194;-45
2022/03/30 02:07:39;;;;;;;6.03;1.73;;;4.50;99.90;;;;;;5044408;28;20263;-44
2022/03/30 02:10:09;;;;;;;8.33;1.67;;;4.50;99.90;;;;;;5066471;28;20268;-41
2022/03/30 02:12:39;;;;;;;4.73;1.37;;;4.50;99.90;;;;;;5063630;28;20313;-46
2022/03/30 02:15:06;;;;;;;9.53;1.77;;;4.50;99.90;;;;;;5061513;28;20214;-48
2022/03/30 02:17:34;;;;;;;4.00;2.13;;;4.50;99.90;;;;;;5058411;28;20194;-43
2022/03/30 02:20:02;;;;;;;6.13;1.40;;;4.50;99.90;;;;;;5066580;28;20194;-43
2022/03/30 02:22:29;;;;;;;2.60;1.73;;;4.50;99.90;;;;;;5048619;28;20206;-43
2022/03/30 02:24:56;;;;;;;4.33;1.80;;;4.50;99.90;;;;;;5065685;28;20198;-47
2022/03/30 02:27:23;;;;;;;4.20;1.80;;;4.50;99.90;;;;;;5062515;28;20769;-44
2022/03/30 02:29:53;;;;;;;4.90;1.53;;;4.50;99.90;;;;;;5060976;28;20202;-48
2022/03/30 02:32:20;;;;;;;4.27;1.60;;;4.50;99.90;;;;;;5064138;28;20273;-49
2022/03/30 02:34:47;;;;;;;5.97;1.50;;;4.50;99.90;;;;;;5065343;28;20267;-47
2022/03/30 02:37:14;;;;;;;7.17;1.67;;;4.50;99.90;;;;;;5058775;28;20718;-45
2022/03/30 02:39:41;;;;;;;6.30;1.40;;;4.50;99.90;;;;;;5056411;28;20278;-44
2022/03/30 02:42:08;;;;;;;6.50;1.93;;;4.50;99.90;;;;;;5066078;28;20211;-44
2022/03/30 02:44:36;;;;;;;4.47;1.60;;;4.60;99.90;;;;;;5057647;28;20839;-43
2022/03/30 02:47:05;;;;;;;6.67;1.67;;;4.60;99.90;;;;;;5065422;28;20230;-45
2022/03/30 02:49:33;;;;;;;7.27;1.67;;;4.60;99.90;;;;;;5062081;28;20945;-47
2022/03/30 02:51:59;;;;;;;7.97;1.70;;;4.60;99.90;;;;;;5067118;28;20190;-43
2022/03/30 02:54:26;;;;;;;4.40;1.50;;;4.60;99.90;;;;;;5047434;28;20726;-45
2022/03/30 02:56:53;;;;;;;5.10;1.57;;;4.60;99.90;;;;;;5065390;28;20225;-44
2022/03/30 02:59:21;;;;;;;4.13;1.57;;;4.60;99.90;;;;;;5063103;28;20290;-44
2022/03/30 03:01:48;;;;;;;6.97;1.57;;;4.60;99.90;;;;;;5059138;28;20305;-46
2022/03/30 03:04:17;;;;;;;4.10;1.20;;;4.60;99.90;;;;;;5063033;28;20294;-48
2022/03/30 03:06:43;;;;;;;5.03;1.57;;;4.60;99.90;;;;;;5062086;28;20206;-43
2022/03/30 03:09:11;;;;;;;3.63;1.60;;;4.60;99.90;;;;;;5045930;28;20722;-44
2022/03/30 03:11:37;;;;;;;6.20;1.47;;;4.60;99.90;;;;;;5059513;28;20201;-46
2022/03/30 03:14:07;;;;;;;3.13;1.70;;;4.60;99.90;;;;;;5064110;28;20206;-43
2022/03/30 03:16:34;;;;;;;5.67;1.63;;;4.60;99.90;;;;;;5054522;28;20218;-44
2022/03/30 03:19:01;;;;;;;3.33;1.37;;;4.60;99.90;;;;;;5063777;28;20210;-43
2022/03/30 03:21:29;;;;;;;5.70;1.57;;;4.60;99.90;;;;;;5059997;28;20222;-43
2022/03/30 03:23:56;;;;;;;9.17;1.50;;;4.60;99.90;;;;;;5046743;28;20281;-45
2022/03/30 03:26:23;;;;;;;4.93;1.37;;;4.60;99.90;;;;;;5059463;28;20218;-47
2022/03/30 03:28:50;;;;;;;5.03;1.43;;;4.50;99.90;;;;;;5064014;28;20210;-45
2022/03/30 03:31:17;;;;;;;6.17;1.83;;;4.50;99.90;;;;;;5059884;28;20662;-49
2022/03/30 03:33:44;;;;;;;7.63;1.60;;;4.40;99.90;;;;;;5059744;28;20892;-47
2022/03/30 03:36:11;;;;;;;4.97;1.20;;;4.40;99.90;;;;;;5062885;28;20620;-45
2022/03/30 03:38:39;;;;;;;3.50;1.20;;;4.40;99.90;;;;;;5046731;28;20206;-43
2022/03/30 03:41:06;;;;;;;2.30;0.90;;;4.40;99.90;;;;;;5063892;28;20207;-43
2022/03/30 03:43:34;;;;;;;7.23;1.47;;;4.40;99.90;;;;;;5059501;28;20881;-46
2022/03/30 03:46:01;;;;;;;3.33;1.20;;;4.40;99.90;;;;;;5061600;28;20803;-45
2022/03/30 03:48:28;;;;;;;5.90;0.90;;;4.40;99.90;;;;;;5054775;28;20199;-45
2022/03/30 03:50:54;;;;;;;2.77;0.90;;;4.40;99.90;;;;;;5063746;28;20195;-43
2022/03/30 03:53:22;;;;;;;6.43;1.00;;;4.40;99.90;;;;;;5050234;28;20679;-46
2022/03/30 03:55:51;;;;;;;5.97;1.27;;;4.30;99.90;;;;;;5059872;28;20790;-45
2022/03/30 03:58:17;;;;;;;2.83;0.93;;;4.30;99.90;;;;;;5061478;28;20304;-47
2022/03/30 04:00:45;;;;;;;5.30;1.10;;;4.30;99.90;;;;;;5021385;28;975389;-43
2022/03/30 04:03:11;;;;;;;6.27;1.00;;;4.30;99.90;;;;;;5058129;28;20324;-44
2022/03/30 04:05:38;;;;;;;4.90;1.13;;;4.30;99.90;;;;;;5055713;28;20424;-45
2022/03/30 04:08:07;;;;;;;5.20;1.00;;;4.30;99.90;;;;;;5059602;28;20209;-43
2022/03/30 04:10:34;;;;;;;3.13;1.43;;;4.30;99.90;;;;;;5044065;28;20209;-46
2022/03/30 04:13:04;;;;;;;5.77;1.00;;;4.40;99.90;;;;;;5060562;28;20195;-43
2022/03/30 04:15:31;;;;;;;2.70;0.87;;;4.40;99.90;;;;;;5061543;28;20226;-43
2022/03/30 04:18:00;;;;;;;3.40;1.53;;;4.30;99.90;;;;;;5050444;28;20284;-43
2022/03/30 04:20:28;;;;;;;2.97;1.17;;;4.40;99.90;;;;;;5064410;28;20199;-44
2022/03/30 04:22:54;;;;;;;5.13;1.60;;;4.30;99.90;;;;;;5055394;28;20211;-43
2022/03/30 04:25:21;;;;;;;7.50;1.10;;;4.40;99.90;;;;;;5049719;28;20222;-44
2022/03/30 04:27:49;;;;;;;1.47;0.87;;;4.40;99.90;;;;;;5060342;28;20197;-51
2022/03/30 04:30:19;;;;;;;2.90;1.00;;;4.20;99.90;;;;;;5058206;28;20198;-45
2022/03/30 04:32:46;;;;;;;3.20;1.10;;;4.20;99.90;;;;;;5056511;28;20202;-45
2022/03/30 04:35:14;;;;;;;10.23;2.33;;;4.20;99.90;;;;;;5057092;28;20218;-45
2022/03/30 04:37:42;;;;;;;3.00;1.20;;;4.20;99.90;;;;;;5061253;28;20207;-44
2022/03/30 04:40:10;;;;;;;3.87;1.00;;;4.30;99.90;;;;;;5045527;28;20206;-48
2022/03/30 04:42:37;;;;;;;4.57;0.90;;;4.30;99.90;;;;;;5057426;28;20229;-44
2022/03/30 04:45:04;;;;;;;2.27;0.90;;;4.30;99.90;;;;;;5055663;28;20195;-45
2022/03/30 04:47:32;;;;;;;5.90;1.03;;;4.20;99.90;;;;;;5061543;28;20272;-46
2022/03/30 04:49:59;;;;;;;6.93;1.43;;;4.20;99.90;;;;;;5053228;28;20195;-49
2022/03/30 04:52:26;;;;;;;2.67;0.77;;;4.20;99.90;;;;;;5056864;28;20210;-44
2022/03/30 04:54:52;;;;;;;6.83;1.67;;;4.20;99.90;;;;;;5058299;28;20521;-44
2022/03/30 04:57:20;;;;;;;4.30;1.40;;;4.30;99.90;;;;;;5048820;28;20226;-44
2022/03/30 04:59:47;;;;;;;4.87;1.27;;;4.10;99.90;;;;;;5059582;28;20256;-45
2022/03/30 05:02:14;;;;;;;3.37;1.10;;;4.20;99.90;;;;;;5060189;28;20225;-45
2022/03/30 05:04:42;;;;;;;2.70;1.10;;;4.20;99.90;;;;;;5054652;28;20198;-46
2022/03/30 05:07:09;;;;;;;2.47;0.90;;;4.10;99.90;;;;;;5058180;28;20210;-47
2022/03/30 05:09:37;;;;;;;4.87;1.30;;;4.10;99.90;;;;;;5062036;28;20194;-48
2022/03/30 05:12:05;;;;;;;2.13;1.00;;;4.10;99.90;;;;;;5036868;28;20208;-45
2022/03/30 05:14:32;;;;;;;7.63;2.20;;;4.10;99.90;;;;;;5062558;28;20204;-45
2022/03/30 05:16:59;;;;;;;5.43;0.90;;;4.10;99.90;;;;;;5053541;28;20984;-45
2022/03/30 05:19:26;;;;;;;6.17;1.13;;;4.00;99.90;;;;;;5062759;28;20209;-45
2022/03/30 05:21:54;;;;;;;6.73;1.40;;;4.00;99.90;;;;;;5054277;28;20217;-45
2022/03/30 05:24:21;;;;;;;8.43;1.57;;;4.00;99.90;;;;;;5060341;28;20202;-47
2022/03/30 05:26:47;;;;;;;7.73;1.00;;;4.00;99.90;;;;;;5044329;28;20210;-49
2022/03/30 05:29:14;;;;;;;2.93;1.00;;;3.90;99.90;;;;;;5057309;28;20206;-47
2022/03/30 05:31:41;;;;;;;4.40;1.30;;;3.80;99.90;;;;;;5056542;28;20702;-46
2022/03/30 05:34:08;;;;;;;2.83;1.40;;;3.70;99.90;;;;;;5059657;28;20199;-46
2022/03/30 05:36:35;;;;;;;4.90;1.20;;;3.80;99.90;;;;;;5048688;28;20233;-48
2022/03/30 05:39:04;;;;;;;2.13;1.10;;;3.80;99.90;;;;;;5056015;28;20265;-47
2022/03/30 05:41:31;;;;;;;2.93;1.60;;;3.80;99.90;;;;;;5042845;28;20601;-48
2022/03/30 05:43:58;;;;;;;2.30;1.20;;;3.90;99.90;;;;;;5044394;28;20264;-44
2022/03/30 05:46:25;;;;;;;2.73;1.47;;;3.90;99.90;;;;;;5057676;28;20221;-50
2022/03/30 05:48:51;;;;;;;5.80;2.03;;;3.90;99.90;;;;;;5054884;28;20206;-49
2022/03/30 05:51:19;;;;;;;4.57;1.67;;;3.90;99.90;;;;;;5058185;28;20859;-47
2022/03/30 05:53:47;;;;;;;3.07;1.40;;;3.90;99.90;;;;;;5053340;28;20224;-49
2022/03/30 05:56:16;;;;;;;4.23;1.63;;;3.90;99.90;;;;;;5055399;28;20258;-44
2022/03/30 05:58:42;;;;;;;7.03;1.60;;;3.80;99.90;;;;;;5041733;28;21718;-48
2022/03/30 06:01:09;;;;;;;7.60;1.87;;;3.90;99.90;;;;;;5055704;28;20264;-44
2022/03/30 06:03:37;;;;;;;3.70;1.90;;;3.90;99.90;;;;;;5056809;28;20218;-46
2022/03/30 06:06:05;;;;;;;5.27;1.60;;;3.90;99.90;;;;;;5060831;28;20214;-44
2022/03/30 06:08:32;;;;;;;5.67;1.43;;;3.90;99.90;;;;;;5049535;28;20217;-45
2022/03/30 06:10:58;;;;;;;3.70;1.70;;;4.00;99.90;;;;;;5061232;28;20327;-44
2022/03/30 06:13:27;;;;;;;7.87;2.07;;;4.00;99.90;;;;;;5043439;28;20248;-46
2022/03/30 06:15:54;;;;;;;4.83;1.70;;;4.00;99.90;;;;;;5054961;28;20211;-42
2022/03/30 06:18:22;;;;;;;4.80;1.60;;;3.90;99.90;;;;;;5041435;28;20194;-44
2022/03/30 06:20:49;;;;;;;4.57;1.77;;;3.90;99.90;;;;;;5060725;28;20298;-45
2022/03/30 06:23:16;;;;;;;6.00;2.00;;;3.90;99.90;;;;;;5050920;28;20225;-46
2022/03/30 06:25:43;;;;;;;4.90;2.40;;;4.00;99.90;;;;;;5053329;28;20311;-46
2022/03/30 06:28:10;;;;;;;6.03;2.20;;;4.00;99.90;;;;;;5048147;28;20565;-44
2022/03/30 06:30:39;;;;;;;5.37;1.80;;;4.00;99.90;;;;;;5045588;28;20423;-44
2022/03/30 06:33:06;;;;;;;5.30;2.30;;;3.90;99.90;;;;;;5057441;28;20218;-44
2022/03/30 06:35:32;;;;;;;5.27;2.27;;;3.90;99.90;;;;;;5059351;28;20211;-44
2022/03/30 06:38:00;;;;;;;6.40;2.30;;;3.80;99.90;;;;;;5060086;28;20201;-45
2022/03/30 06:40:28;;;;;;;7.87;2.70;;;3.80;99.90;;;;;;5048915;28;20274;-44
2022/03/30 06:42:56;;;;;;;5.90;2.20;;;3.90;99.90;;;;;;5055055;28;20214;-44
2022/03/30 06:45:23;;;;;;;4.07;2.37;;;3.80;99.90;;;;;;5037180;28;20214;-45
2022/03/30 06:47:51;;;;;;;3.10;2.13;;;3.90;99.90;;;;;;5060322;28;20199;-49
2022/03/30 06:50:19;;;;;;;10.43;3.07;;;3.90;99.90;;;;;;5050207;28;20715;-47
2022/03/30 06:52:46;;;;;;;7.50;2.60;;;3.90;99.90;;;;;;5057603;28;20209;-43
2022/03/30 06:55:14;;;;;;;9.10;2.70;;;4.00;99.90;;;;;;5050380;28;20194;-49
2022/03/30 06:57:42;;;;;;;4.30;2.50;;;3.90;99.90;;;;;;5048466;28;20210;-48
2022/03/30 07:00:12;;;;;;;5.20;3.20;;;3.90;99.90;;;;;;5048836;28;20206;-44
2022/03/30 07:02:40;;;;;;;5.67;2.40;;;3.90;99.90;;;;;;5063591;28;20202;-44
2022/03/30 07:05:09;;;;;;;6.53;2.37;;;3.90;99.90;;;;;;5059754;28;20191;-46
2022/03/30 07:10:23;;;;;;;4.67;3.20;;;4.00;99.90;;;;;;5058390;28;20311;-48
2022/03/30 07:12:51;;;;;;;6.73;2.90;;;4.20;99.90;;;;;;5052117;28;20190;-44
2022/03/30 07:15:19;;;;;;;7.90;3.17;;;4.10;99.90;;;;;;5055333;28;20214;-45
2022/03/30 07:17:48;;;;;;;5.50;2.70;;;4.10;99.90;;;;;;5052857;28;20202;-45
2022/03/30 07:20:17;;;;;;;4.93;2.80;;;4.20;99.90;;;;;;5065287;28;20230;-44
2022/03/30 07:22:44;;;;;;;8.17;3.23;;;4.20;99.90;;;;;;5060102;28;20912;-43
2022/03/30 07:25:13;;;;;;;4.00;2.40;;;4.30;99.90;;;;;;5064899;28;20624;-45
2022/03/30 07:27:40;;;;;;;5.07;3.00;;;4.30;99.90;;;;;;5048005;28;21647;-44
2022/03/30 07:30:09;;;;;;;4.03;2.80;;;4.30;99.90;;;;;;5059708;28;20206;-49
2022/03/30 07:32:38;;;;;;;5.63;2.60;;;4.20;99.90;;;;;;5046626;28;20202;-45
2022/03/30 07:35:06;;;;;;;2.77;2.23;;;4.20;99.90;;;;;;5064239;28;20210;-44
2022/03/30 07:37:34;;;;;;;6.93;2.63;;;4.20;99.90;;;;;;5060305;28;20203;-45
2022/03/30 07:40:02;;;;;;;6.20;2.50;;;4.20;99.90;;;;;;5063463;28;20195;-43
2022/03/30 07:42:29;;;;;;;5.00;2.40;;;4.30;99.90;;;;;;5057332;28;20570;-47
2022/03/30 07:44:56;;;;;;;4.30;2.33;;;4.40;99.90;;;;;;5055977;28;20219;-43
2022/03/30 07:47:23;;;;;;;8.13;2.83;;;4.40;99.90;;;;;;5053373;28;20206;-52
2022/03/30 07:49:50;;;;;;;6.17;3.10;;;4.40;99.90;;;;;;5060948;28;20545;-47
2022/03/30 07:52:17;;;;;;;8.87;3.13;;;4.50;99.90;;;;;;5060737;28;20198;-44
2022/03/30 07:54:45;;;;;;;5.60;2.53;;;4.50;99.90;;;;;;5060527;28;20197;-46
2022/03/30 07:57:12;;;;;;;4.73;3.00;;;4.60;99.90;;;;;;5058911;28;20262;-45
2022/03/30 07:59:40;;;;;;;6.57;2.90;;;4.60;99.90;;;;;;5041958;28;20313;-45
2022/03/30 08:02:08;;;;;;;4.83;2.60;;;4.50;99.90;;;;;;5061134;28;20206;-46
2022/03/30 08:04:34;;;;;;;5.23;2.20;;;4.60;99.90;;;;;;5044535;28;20190;-44
2022/03/30 08:07:01;;;;;;;4.73;1.67;;;4.60;99.90;;;;;;5061091;28;20302;-45
2022/03/30 08:09:28;;;;;;;3.87;2.17;;;4.50;99.90;;;;;;5059911;28;20195;-44
2022/03/30 08:11:56;;;;;;;3.13;2.23;;;4.50;99.90;;;;;;5058761;28;20205;-43
2022/03/30 08:14:23;;;;;;;4.57;2.37;;;4.60;99.90;;;;;;5055087;28;20206;-49
2022/03/30 08:16:49;;;;;;;5.07;2.50;;;4.60;99.90;;;;;;5061562;28;20225;-46
2022/03/30 08:19:16;;;;;;;4.97;2.47;;;4.60;99.90;;;;;;5053289;28;20210;-45
2022/03/30 08:24:28;;;;;;;4.43;2.70;;;4.90;99.90;;;;;;5059135;28;20199;-46
2022/03/30 08:26:56;;;;;;;3.10;2.33;;;5.00;99.90;;;;;;5061775;28;20237;-43
2022/03/30 08:29:23;;;;;;;6.93;2.27;;;4.90;99.90;;;;;;5050692;28;20207;-45
2022/03/30 08:31:50;;;;;;;5.33;2.67;;;4.90;99.90;;;;;;5061257;28;20206;-44
2022/03/30 08:34:18;;;;;;;3.93;2.57;;;4.80;99.90;;;;;;5052479;28;20562;-46
2022/03/30 08:36:45;;;;;;;4.53;3.00;;;4.70;99.90;;;;;;5055864;28;20214;-44
2022/03/30 08:39:12;;;;;;;5.60;3.93;;;4.80;99.90;;;;;;5064906;28;20663;-46
2022/03/30 08:41:43;;;;;;;5.60;2.80;;;4.80;99.90;;;;;;5060223;28;20207;-44
2022/03/30 08:44:14;;;;;;;3.00;2.67;;;4.80;99.90;;;;;;5057591;28;20219;-43
2022/03/30 08:46:42;;;;;;;4.13;2.70;;;4.90;99.90;;;;;;5055972;28;20223;-43
2022/03/30 08:49:09;;;;;;;4.87;2.17;;;5.00;99.90;;;;;;5062290;28;20563;-46
2022/03/30 08:51:39;;;;;;;5.63;2.57;;;4.90;99.90;;;;;;5047156;28;20183;-46
2022/03/30 08:54:10;;;;;;;3.50;2.20;;;4.90;99.90;;;;;;5062598;28;20197;-43
2022/03/30 08:56:37;;;;;;;4.60;2.90;;;5.00;99.90;;;;;;5058968;28;20214;-44
2022/03/30 08:59:05;;;;;;;4.70;2.63;;;5.10;99.90;;;;;;5056816;28;20213;-44
2022/03/30 09:01:35;;;;;;;3.50;2.20;;;5.10;99.90;;;;;;5050473;28;20198;-45
2022/03/30 09:04:05;;;;;;;5.67;2.30;;;5.20;99.90;;;;;;5062143;28;20253;-44
2022/03/30 09:06:40;;;;;;;3.67;2.20;;;5.20;99.90;;;;;;5043563;28;20218;-43
2022/03/30 09:09:07;;;;;;;2.47;1.90;;;5.10;99.90;;;;;;5063337;28;20569;-43
2022/03/30 09:11:55;;;;;;;4.10;2.23;;;5.20;99.90;;;;;;5057361;28;20274;-45
2022/03/30 09:14:24;;;;;;;2.70;2.20;;;5.10;99.90;;;;;;5055569;28;20674;-46
2022/03/30 09:16:55;;;;;;;5.83;2.20;;;5.10;99.90;;;;;;5054292;28;20305;-44
2022/03/30 09:19:25;;;;;;;3.93;2.20;;;5.20;99.90;;;;;;5059212;28;20198;-46
2022/03/30 09:21:54;;;;;;;3.37;2.50;;;5.20;99.90;;;;;;5047485;28;20210;-44
2022/03/30 09:24:23;;;;;;;4.90;2.30;;;5.30;99.90;;;;;;5057963;28;20206;-46
2022/03/30 09:26:52;;;;;;;2.57;1.50;;;5.30;99.90;;;;;;5061058;28;20214;-47
2022/03/30 09:29:19;;;;;;;6.73;2.33;;;5.20;99.90;;;;;;5049878;28;20210;-46
2022/03/30 09:31:48;;;;;;;5.87;2.03;;;5.30;99.90;;;;;;5055559;28;20210;-43
2022/03/30 09:34:16;;;;;;;3.50;2.40;;;5.40;99.90;;;;;;5044428;28;20203;-45
2022/03/30 09:36:45;;;;;;;2.07;1.33;;;5.50;99.90;;;;;;5043920;28;20222;-45
2022/03/30 09:39:28;;;;;;;2.33;1.50;;;5.50;99.90;;;;;;5052068;28;20225;-44
2022/03/30 09:41:56;;;;;;;3.83;1.63;;;5.50;99.90;;;;;;5053024;28;20217;-45
2022/03/30 09:44:24;;;;;;;3.03;1.90;;;5.50;99.90;;;;;;5047741;28;20979;-44
2022/03/30 09:46:52;;;;;;;1.80;1.37;;;5.60;99.90;;;;;;5041700;28;20237;-44
2022/03/30 09:49:34;;;;;;;3.20;2.00;;;5.60;99.90;;;;;;5055178;28;20214;-46
2022/03/30 09:52:01;;;;;;;4.60;1.47;;;5.70;99.90;;;;;;5045188;28;20280;-44
2022/03/30 09:54:42;;;;;;;1.80;1.27;;;5.60;99.90;;;;;;5061915;28;20197;-47
2022/03/30 09:57:15;;;;;;;2.90;1.10;;;5.50;99.90;;;;;;5063163;28;20218;-43
2022/03/30 10:00:16;;;;;;;4.20;1.10;;;5.50;99.90;;;;;;5059862;28;20248;-47
2022/03/30 10:02:46;;;;;;;2.33;1.10;;;5.50;99.90;;;;;;4986102;28;20258;-47
2022/03/30 10:05:17;;;;;;;2.97;1.43;;;5.50;99.90;;;;;;4993700;28;20250;-43
2022/03/30 10:07:45;;;;;;;3.63;1.73;;;5.50;99.90;;;;;;5011621;28;20221;-48
2022/03/30 10:10:13;;;;;;;1.57;1.07;;;5.60;99.90;;;;;;5060365;28;20194;-46
2022/03/30 10:12:40;;;;;;;2.47;1.30;;;5.70;99.90;;;;;;5054214;28;20213;-45
2022/03/30 10:15:09;;;;;;;3.23;1.33;;;5.70;99.90;;;;;;5060772;28;20191;-43
2022/03/30 10:17:36;;;;;;;1.57;1.37;;;5.80;99.90;;;;;;5058466;28;20229;-45
2022/03/30 10:20:05;;;;;;;2.73;1.20;;;5.80;99.90;;;;;;5049630;28;20282;-44
2022/03/30 10:22:59;;;;;;;2.97;1.30;;;5.80;99.90;;;;;;5055669;28;20233;-46
2022/03/30 10:25:51;;;;;;;1.97;1.00;;;5.80;99.90;;;;;;5052036;28;20309;-46
2022/03/30 10:28:22;;;;;;;1.63;0.90;;;5.80;99.90;;;;;;5062797;28;20281;-44
2022/03/30 10:30:53;;;;;;;1.20;0.80;;;5.90;99.90;;;;;;5060979;28;20203;-44
2022/03/30 10:33:32;;;;;;;2.83;1.17;;;6.00;99.90;;;;;;5059840;28;21025;-46
2022/03/30 10:36:19;;;;;;;1.43;1.00;;;6.10;99.90;;;;;;5049692;28;20291;-44
2022/03/30 10:39:11;;;;;;;2.67;1.03;;;6.10;99.90;;;;;;5047360;28;20741;-50
2022/03/30 10:41:51;;;;;;;3.70;1.47;;;6.20;99.90;;;;;;5060297;28;20202;-49
2022/03/30 10:44:41;;;;;;;3.80;1.70;;;6.30;99.90;;;;;;5055992;28;20298;-46
2022/03/30 10:47:14;;;;;;;6.80;1.20;;;6.30;99.90;;;;;;5062136;28;20305;-45
2022/03/30 10:49:44;;;;;;;2.00;1.63;;;6.10;99.90;;;;;;5049803;28;20286;-44
2022/03/30 10:52:28;;;;;;;1.37;1.10;;;6.30;99.90;;;;;;5048748;28;20207;-49
2022/03/30 10:55:30;;;;;;;2.50;1.20;;;6.50;99.90;;;;;;5047652;28;20194;-45
2022/03/30 10:58:01;;;;;;;2.87;1.23;;;6.50;99.90;;;;;;5060977;28;20205;-48
2022/03/30 11:00:31;;;;;;;3.20;1.07;;;6.60;99.90;;;;;;5077759;28;20887;-44
2022/03/30 11:03:09;;;;;;;1.13;0.93;;;6.70;99.90;;;;;;5054058;28;20285;-44
2022/03/30 11:05:37;;;;;;;2.90;1.10;;;6.70;99.90;;;;;;5056166;28;20222;-43
2022/03/30 11:08:06;;;;;;;1.43;1.00;;;6.70;99.90;;;;;;5054707;28;20214;-45
2022/03/30 11:10:47;;;;;;;1.97;1.43;;;6.60;99.90;;;;;;5047156;28;20298;-43
2022/03/30 11:13:23;;;;;;;2.77;1.30;;;6.70;99.90;;;;;;5053290;28;20272;-43
2022/03/30 11:16:07;;;;;;;4.10;1.43;;;6.60;99.90;;;;;;5063177;28;20272;-49
2022/03/30 11:18:36;;;;;;;2.13;1.20;;;6.60;99.90;;;;;;5060965;28;20289;-43
2022/03/30 11:21:18;;;;;;;4.07;1.43;;;6.60;99.90;;;;;;5055750;28;20238;-47
2022/03/30 11:24:25;;;;;;;4.43;1.30;;;6.60;99.90;;;;;;5056217;28;20214;-42
2022/03/30 11:27:24;;;;;;;3.03;1.20;;;6.60;99.90;;;;;;5037563;28;20326;-44
2022/03/30 11:30:03;;;;;;;1.43;1.10;;;6.80;99.90;;;;;;5064584;28;20523;-46
2022/03/30 11:32:55;;;;;;;2.03;1.33;;;6.70;99.90;;;;;;5053177;28;20205;-43
2022/03/30 11:35:25;;;;;;;1.93;1.40;;;6.70;99.90;;;;;;5051055;28;20237;-44
2022/03/30 11:38:04;;;;;;;2.57;1.40;;;6.80;99.90;;;;;;5056456;28;20194;-48
2022/03/30 11:40:36;;;;;;;1.83;1.20;;;7.00;99.90;;;;;;5063487;28;20195;-44
2022/03/30 11:43:05;;;;;;;1.33;1.20;;;6.90;99.90;;;;;;5045335;28;20228;-48
2022/03/30 11:45:32;;;;;;;2.47;1.00;;;7.00;99.90;;;;;;5051676;28;20237;-44
2022/03/30 11:48:01;;;;;;;1.53;1.30;;;7.10;99.90;;;;;;5059465;28;20199;-47
2022/03/30 11:50:30;;;;;;;4.23;1.23;;;7.20;99.90;;;;;;5054600;28;20898;-44
2022/03/30 11:52:59;;;;;;;2.23;1.20;;;7.20;99.90;;;;;;5058823;28;20303;-45
2022/03/30 11:55:27;;;;;;;2.87;1.77;;;7.30;99.90;;;;;;5058447;28;20234;-45
2022/03/30 11:57:54;;;;;;;3.57;1.20;;;7.30;99.90;;;;;;5046836;28;20685;-49
2022/03/30 12:00:26;;;;;;;1.80;1.30;;;7.40;99.90;;;;;;5057531;28;20230;-48
2022/03/30 12:02:56;;;;;;;1.10;1.00;;;7.40;99.90;;;;;;5049417;28;20211;-46
2022/03/30 12:05:24;;;;;;;1.57;1.03;;;7.40;99.90;;;;;;5046083;28;20233;-47
2022/03/30 12:07:53;;;;;;;1.83;1.70;;;7.20;99.90;;;;;;5054150;28;20705;-45
2022/03/30 12:10:26;;;;;;;1.47;0.97;;;7.20;99.90;;;;;;5045826;28;20210;-46
2022/03/30 12:12:53;;;;;;;2.67;1.00;;;7.30;99.90;;;;;;5051033;28;20231;-49
2022/03/30 12:15:21;;;;;;;3.30;1.20;;;7.50;99.90;;;;;;5058679;28;20225;-45
2022/03/30 12:17:54;;;;;;;1.43;1.03;;;7.60;99.90;;;;;;5054265;28;20209;-45
2022/03/30 12:20:26;;;;;;;1.30;1.20;;;7.60;99.90;;;;;;5051725;28;21669;-44
2022/03/30 12:22:58;;;;;;;3.33;1.23;;;7.60;99.90;;;;;;5061905;28;20947;-47
2022/03/30 12:25:30;;;;;;;2.33;1.30;;;7.70;99.90;;;;;;5056622;28;20222;-43
2022/03/30 12:27:58;;;;;;;2.03;1.10;;;7.70;99.90;;;;;;5036427;28;20207;-42
2022/03/30 12:30:25;;;;;;;1.40;0.83;;;7.70;99.90;;;;;;5057900;28;20663;-50
2022/03/30 12:32:54;;;;;;;1.73;0.87;;;7.70;99.90;;;;;;5058800;28;20201;-43
2022/03/30 12:35:21;;;;;;;2.80;1.10;;;7.60;99.90;;;;;;5059474;28;20718;-47
2022/03/30 12:37:49;;;;;;;1.13;0.93;;;7.60;99.90;;;;;;5053275;28;20213;-42
2022/03/30 12:40:20;;;;;;;1.43;0.87;;;7.60;99.90;;;;;;5053493;28;20247;-44
2022/03/30 12:42:49;;;;;;;2.93;1.00;;;7.60;99.90;;;;;;5044617;28;20362;-43
2022/03/30 12:45:17;;;;;;;1.20;0.80;;;7.60;99.90;;;;;;5052227;28;20215;-45
2022/03/30 12:47:51;;;;;;;1.27;0.80;;;7.80;99.90;;;;;;5057779;28;20997;-43
2022/03/30 12:50:23;;;;;;;3.67;1.10;;;7.90;99.90;;;;;;5057056;28;20206;-46
2022/03/30 12:52:52;;;;;;;2.57;1.00;;;7.80;99.90;;;;;;5056376;28;20291;-45
2022/03/30 12:55:24;;;;;;;2.53;0.90;;;8.00;99.90;;;;;;5053453;28;20222;-44
2022/03/30 12:57:57;;;;;;;1.13;0.60;;;7.90;99.90;;;;;;5057424;28;20191;-43
2022/03/30 13:00:26;;;;;;;2.80;0.80;;;8.10;99.90;;;;;;5043282;28;20223;-47
2022/03/30 13:03:08;;;;;;;1.07;0.70;;;8.00;99.90;;;;;;5049325;28;20210;-50
2022/03/30 13:05:37;;;;;;;1.70;1.17;;;8.00;99.90;;;;;;5046358;28;20917;-45
2022/03/30 13:08:15;;;;;;;2.87;0.80;;;8.10;99.90;;;;;;5052403;28;20194;-45
2022/03/30 13:10:54;;;;;;;1.53;0.83;;;8.20;99.90;;;;;;5049888;28;20283;-48
2022/03/30 13:13:23;;;;;;;1.60;1.03;;;8.30;99.90;;;;;;5052413;28;20209;-47
2022/03/30 13:15:51;;;;;;;2.03;1.00;;;8.40;99.90;;;;;;5048291;28;20224;-46
2022/03/30 13:18:19;;;;;;;1.80;1.07;;;8.50;99.90;;;;;;5062190;28;20195;-45